Time;durP1;ratioP1;P1;durP2;ratioP2;P2;SDS_P1;SDS_P2;PMS_P1;PMS_P2;Temp;Humidity;BMP_temperature;BMP_pressure;BME280_temperature;BME280_humidity;BME280_pressure;Samples;Min_cycle;Max_cycle;Signal;HPM_P1;HPM_P2
2021/10/24 00:00:45;;;;;;;4.05;1.77;;;;;;;;;;5053073;28;20067;-51
2021/10/24 00:03:11;;;;;;;3.22;1.88;;;;;;;;;;5053005;28;20025;-50
2021/10/24 00:05:38;;;;;;;3.20;1.92;;;;;;;;;;5052462;28;20037;-51
2021/10/24 00:08:04;;;;;;;5.72;2.22;;;;;;;;;;5052680;28;20067;-51
2021/10/24 00:10:30;;;;;;;4.40;2.10;;;;;;;;;;5053125;28;20032;-50
2021/10/24 00:12:56;;;;;;;8.57;2.05;;;;;;;;;;5053113;28;20033;-51
2021/10/24 00:15:22;;;;;;;10.70;2.40;;;;;;;;;;5052525;28;20032;-51
2021/10/24 00:17:48;;;;;;;5.65;2.00;;;;;;;;;;5052649;28;20025;-51
2021/10/24 00:20:14;;;;;;;3.95;1.95;;;;;;;;;;5052494;28;20029;-51
2021/10/24 00:22:40;;;;;;;3.90;2.28;;;;;;;;;;5052906;28;20017;-51
2021/10/24 00:25:06;;;;;;;7.70;1.75;;;;;;;;;;5052441;28;20029;-51
2021/10/24 00:27:32;;;;;;;3.85;1.88;;;;;;;;;;5052846;28;20044;-51
2021/10/24 00:29:58;;;;;;;6.65;1.95;;;;;;;;;;5052338;28;20032;-51
2021/10/24 00:32:24;;;;;;;7.70;1.98;;;;;;;;;;5052622;28;20497;-51
2021/10/24 00:34:50;;;;;;;4.88;1.75;;;;;;;;;;5052148;28;20021;-51
2021/10/24 00:37:16;;;;;;;2.55;1.55;;;;;;;;;;5052659;28;20412;-51
2021/10/24 00:39:42;;;;;;;12.45;2.15;;;;;;;;;;5052610;28;20032;-51
2021/10/24 00:42:08;;;;;;;6.63;1.80;;;;;;;;;;5052465;28;20036;-51
2021/10/24 00:44:34;;;;;;;3.75;1.90;;;;;;;;;;5052496;28;20033;-51
2021/10/24 00:47:02;;;;;;;5.25;2.47;;;;;;;;;;5056377;28;20041;-51
2021/10/24 00:49:28;;;;;;;2.60;1.88;;;;;;;;;;5056911;28;20021;-51
2021/10/24 00:51:54;;;;;;;4.60;1.65;;;;;;;;;;5056798;28;20358;-51
2021/10/24 00:54:22;;;;;;;5.45;1.85;;;;;;;;;;5055684;28;20510;-50
2021/10/24 00:56:49;;;;;;;2.53;2.03;;;;;;;;;;5055274;28;20048;-51
2021/10/24 00:59:16;;;;;;;2.97;1.50;;;;;;;;;;5056272;28;20545;-50
2021/10/24 01:01:42;;;;;;;4.85;2.00;;;;;;;;;;5056775;28;20044;-51
2021/10/24 01:04:08;;;;;;;7.22;2.13;;;;;;;;;;5055855;28;20017;-51
2021/10/24 01:06:35;;;;;;;4.85;2.10;;;;;;;;;;5056446;28;20083;-51
2021/10/24 01:09:01;;;;;;;2.53;1.90;;;;;;;;;;5056287;28;20027;-51
2021/10/24 01:11:28;;;;;;;4.28;2.20;;;;;;;;;;5056377;28;20064;-51
2021/10/24 01:13:55;;;;;;;2.67;1.55;;;;;;;;;;5055331;28;20037;-50
2021/10/24 01:16:21;;;;;;;3.83;2.17;;;;;;;;;;5056572;28;20100;-51
2021/10/24 01:18:47;;;;;;;8.68;2.42;;;;;;;;;;5056326;28;20037;-51
2021/10/24 01:21:13;;;;;;;3.40;1.80;;;;;;;;;;5056139;28;20021;-51
2021/10/24 01:23:39;;;;;;;5.68;2.13;;;;;;;;;;5055152;28;20116;-51
2021/10/24 01:26:06;;;;;;;7.85;1.98;;;;;;;;;;5056262;28;20120;-50
2021/10/24 01:28:33;;;;;;;3.20;1.83;;;;;;;;;;5055638;28;20509;-51
2021/10/24 01:30:59;;;;;;;9.05;2.13;;;;;;;;;;5055870;28;20081;-51
2021/10/24 01:33:26;;;;;;;5.85;2.22;;;;;;;;;;5055572;28;20056;-51
2021/10/24 01:35:56;;;;;;;3.95;2.42;;;;;;;;;;5055367;28;20075;-51
2021/10/24 01:38:22;;;;;;;;;;;;;;;;;;5056333;28;20037;-50
2021/10/24 01:40:48;;;;;;;2.83;2.00;;;;;;;;;;5055383;28;19904;-51
2021/10/24 01:43:15;;;;;;;2.83;1.52;;;;;;;;;;5038673;28;20451;-51
2021/10/24 01:45:41;;;;;;;5.82;1.98;;;;;;;;;;5034792;28;20064;-50
2021/10/24 01:48:07;;;;;;;4.57;1.90;;;;;;;;;;5035806;28;20064;-51
2021/10/24 01:50:33;;;;;;;6.68;1.95;;;;;;;;;;5035860;28;20021;-50
2021/10/24 01:52:59;;;;;;;2.92;2.00;;;;;;;;;;5035219;28;20030;-51
2021/10/24 01:55:25;;;;;;;2.83;1.85;;;;;;;;;;5033701;28;20025;-51
2021/10/24 01:57:52;;;;;;;4.18;1.88;;;;;;;;;;5034598;28;20029;-51
2021/10/24 02:00:20;;;;;;;6.15;2.00;;;;;;;;;;5035618;28;20024;-51
2021/10/24 02:02:46;;;;;;;4.65;2.20;;;;;;;;;;5035338;28;20455;-50
2021/10/24 02:05:12;;;;;;;2.58;1.92;;;;;;;;;;5034906;28;20345;-50
2021/10/24 02:07:38;;;;;;;5.03;2.30;;;;;;;;;;5034850;28;20530;-51
2021/10/24 02:10:05;;;;;;;7.00;1.92;;;;;;;;;;5035278;28;20025;-51
2021/10/24 02:12:31;;;;;;;5.55;1.75;;;;;;;;;;5035075;28;20041;-51
2021/10/24 02:14:57;;;;;;;6.43;1.67;;;;;;;;;;5034438;28;20024;-51
2021/10/24 02:17:23;;;;;;;17.95;1.85;;;;;;;;;;5035204;28;20029;-51
2021/10/24 02:19:49;;;;;;;4.38;2.05;;;;;;;;;;5034843;28;20359;-50
2021/10/24 02:22:16;;;;;;;2.92;1.20;;;;;;;;;;5034813;28;20036;-51
2021/10/24 02:24:42;;;;;;;4.20;2.00;;;;;;;;;;5034031;28;20017;-51
2021/10/24 02:27:08;;;;;;;7.13;2.83;;;;;;;;;;5035029;28;20044;-51
2021/10/24 02:29:34;;;;;;;3.78;2.00;;;;;;;;;;5034470;28;20021;-51
2021/10/24 02:32:00;;;;;;;7.47;2.10;;;;;;;;;;5034959;28;20510;-51
2021/10/24 02:34:26;;;;;;;3.33;1.95;;;;;;;;;;5033734;28;20116;-51
2021/10/24 02:36:52;;;;;;;3.70;1.90;;;;;;;;;;5034664;28;20033;-51
2021/10/24 02:39:18;;;;;;;4.50;2.40;;;;;;;;;;5034810;28;20398;-51
2021/10/24 02:41:44;;;;;;;3.55;2.05;;;;;;;;;;5034911;28;20031;-50
2021/10/24 02:44:12;;;;;;;5.25;2.17;;;;;;;;;;5033524;28;20021;-51
2021/10/24 02:46:39;;;;;;;5.65;1.92;;;;;;;;;;5034445;28;20060;-50
2021/10/24 02:49:05;;;;;;;4.03;1.80;;;;;;;;;;5034227;28;20022;-51
2021/10/24 02:51:31;;;;;;;6.28;2.17;;;;;;;;;;5032748;28;20024;-51
2021/10/24 02:53:57;;;;;;;5.00;1.58;;;;;;;;;;5053026;28;20435;-51
2021/10/24 02:56:23;;;;;;;5.50;2.08;;;;;;;;;;5053368;28;20121;-51
2021/10/24 02:58:49;;;;;;;3.50;1.70;;;;;;;;;;5054091;28;20036;-51
2021/10/24 03:01:15;;;;;;;5.55;2.10;;;;;;;;;;5054319;28;20029;-50
2021/10/24 03:03:41;;;;;;;4.10;2.10;;;;;;;;;;5053551;28;20272;-51
2021/10/24 03:06:07;;;;;;;4.30;1.70;;;;;;;;;;5054244;28;20098;-51
2021/10/24 03:08:33;;;;;;;4.05;1.50;;;;;;;;;;5052871;28;20024;-51
2021/10/24 03:10:59;;;;;;;7.85;2.47;;;;;;;;;;5054143;28;20029;-51
2021/10/24 03:13:25;;;;;;;4.30;1.67;;;;;;;;;;5049649;28;20020;-51
2021/10/24 03:15:53;;;;;;;3.03;1.77;;;;;;;;;;5054025;28;20033;-51
2021/10/24 03:18:19;;;;;;;1.77;1.50;;;;;;;;;;5053970;28;20033;-51
2021/10/24 03:20:45;;;;;;;2.55;1.50;;;;;;;;;;5053888;28;20029;-51
2021/10/24 03:23:11;;;;;;;5.72;1.60;;;;;;;;;;5053224;28;20159;-51
2021/10/24 03:25:37;;;;;;;8.40;2.47;;;;;;;;;;5052776;28;20028;-51
2021/10/24 03:28:03;;;;;;;4.93;2.08;;;;;;;;;;5053840;28;20029;-51
2021/10/24 03:30:29;;;;;;;2.60;1.48;;;;;;;;;;5040837;28;20033;-51
2021/10/24 03:32:55;;;;;;;4.63;1.90;;;;;;;;;;5033605;28;20057;-51
2021/10/24 03:35:21;;;;;;;2.92;1.58;;;;;;;;;;5033241;28;20032;-51
2021/10/24 03:37:47;;;;;;;2.83;1.90;;;;;;;;;;5033422;28;20296;-50
2021/10/24 03:40:13;;;;;;;5.65;2.42;;;;;;;;;;5033590;28;20038;-51
2021/10/24 03:42:39;;;;;;;2.08;1.65;;;;;;;;;;5033430;28;20386;-51
2021/10/24 03:45:06;;;;;;;1.55;1.35;;;;;;;;;;5032939;28;20113;-51
2021/10/24 03:47:32;;;;;;;7.13;2.00;;;;;;;;;;5033210;28;20355;-51
2021/10/24 03:49:58;;;;;;;4.20;1.80;;;;;;;;;;5033585;28;20053;-51
2021/10/24 03:52:24;;;;;;;3.22;1.77;;;;;;;;;;5033416;28;20561;-51
2021/10/24 03:54:50;;;;;;;3.17;1.80;;;;;;;;;;5031991;28;20108;-51
2021/10/24 03:57:16;;;;;;;2.70;1.50;;;;;;;;;;5032572;28;20086;-51
2021/10/24 03:59:43;;;;;;;1.83;1.48;;;;;;;;;;5033195;28;20022;-51
2021/10/24 04:02:09;;;;;;;4.88;1.67;;;;;;;;;;5033362;28;20033;-51
2021/10/24 04:04:35;;;;;;;3.72;1.80;;;;;;;;;;5032663;28;20025;-51
2021/10/24 04:07:01;;;;;;;3.38;1.70;;;;;;;;;;5033036;28;20022;-51
2021/10/24 04:09:27;;;;;;;2.38;1.80;;;;;;;;;;5032929;28;20033;-51
2021/10/24 04:11:53;;;;;;;4.43;1.90;;;;;;;;;;5032558;28;20021;-51
2021/10/24 04:14:19;;;;;;;3.58;1.70;;;;;;;;;;5032695;28;20071;-51
2021/10/24 04:16:45;;;;;;;7.55;3.05;;;;;;;;;;5033164;28;20021;-51
2021/10/24 04:19:11;;;;;;;3.78;1.95;;;;;;;;;;5032720;28;20021;-51
2021/10/24 04:21:37;;;;;;;3.42;2.10;;;;;;;;;;5032791;28;20029;-50
2021/10/24 04:24:03;;;;;;;4.07;1.85;;;;;;;;;;5031960;28;20028;-51
2021/10/24 04:26:29;;;;;;;7.47;1.95;;;;;;;;;;5033007;28;20087;-51
2021/10/24 04:28:56;;;;;;;7.28;1.95;;;;;;;;;;5032959;28;20021;-51
2021/10/24 04:31:22;;;;;;;6.65;1.85;;;;;;;;;;5032801;28;20398;-51
2021/10/24 04:33:48;;;;;;;6.85;1.95;;;;;;;;;;5032267;28;20048;-51
2021/10/24 04:36:14;;;;;;;3.33;1.90;;;;;;;;;;5032695;28;20448;-51
2021/10/24 04:38:40;;;;;;;3.08;1.77;;;;;;;;;;5032503;28;20021;-51
2021/10/24 04:41:06;;;;;;;7.35;1.63;;;;;;;;;;5032355;28;20030;-51
2021/10/24 04:43:32;;;;;;;2.85;1.85;;;;;;;;;;5032158;28;20021;-51
2021/10/24 04:45:58;;;;;;;6.28;1.95;;;;;;;;;;5032662;28;20276;-51
2021/10/24 04:48:24;;;;;;;6.10;2.22;;;;;;;;;;5032706;28;20467;-51
2021/10/24 04:50:50;;;;;;;7.38;1.95;;;;;;;;;;5032466;28;20022;-51
2021/10/24 04:53:16;;;;;;;3.75;2.03;;;;;;;;;;5032269;28;20029;-51
2021/10/24 04:55:44;;;;;;;8.02;1.80;;;;;;;;;;5030340;28;20060;-51
2021/10/24 04:58:11;;;;;;;5.57;1.95;;;;;;;;;;5032482;28;20029;-51
2021/10/24 05:00:37;;;;;;;3.38;1.45;;;;;;;;;;5032413;28;20021;-51
2021/10/24 05:03:03;;;;;;;6.32;2.22;;;;;;;;;;5032521;28;20030;-51
2021/10/24 05:05:30;;;;;;;3.33;1.92;;;;;;;;;;5031895;28;20308;-51
2021/10/24 05:07:56;;;;;;;5.75;1.90;;;;;;;;;;5032379;28;20034;-51
2021/10/24 05:10:22;;;;;;;4.78;2.05;;;;;;;;;;5032536;28;20036;-51
2021/10/24 05:12:48;;;;;;;3.10;1.70;;;;;;;;;;5032356;28;20033;-51
2021/10/24 05:15:14;;;;;;;6.38;2.00;;;;;;;;;;5031571;28;20344;-51
2021/10/24 05:17:40;;;;;;;4.13;1.92;;;;;;;;;;5032450;28;20045;-51
2021/10/24 05:20:06;;;;;;;3.15;2.00;;;;;;;;;;5032259;28;20061;-51
2021/10/24 05:22:33;;;;;;;6.15;2.35;;;;;;;;;;5032428;28;20347;-51
2021/10/24 05:24:59;;;;;;;2.55;2.03;;;;;;;;;;5031725;28;20116;-51
2021/10/24 05:27:25;;;;;;;6.03;2.10;;;;;;;;;;5032102;28;20443;-51
2021/10/24 05:29:51;;;;;;;2.65;1.80;;;;;;;;;;5039325;28;20021;-51
2021/10/24 05:32:17;;;;;;;10.45;2.00;;;;;;;;;;5053841;28;20028;-51
2021/10/24 05:34:43;;;;;;;7.35;2.67;;;;;;;;;;5054912;28;20326;-51
2021/10/24 05:37:09;;;;;;;4.05;2.10;;;;;;;;;;5056178;28;20029;-51
2021/10/24 05:39:35;;;;;;;6.55;2.30;;;;;;;;;;5055746;28;20025;-51
2021/10/24 05:42:02;;;;;;;7.13;2.42;;;;;;;;;;5055844;28;20027;-51
2021/10/24 05:44:29;;;;;;;4.32;2.17;;;;;;;;;;5054943;28;20139;-51
2021/10/24 05:46:55;;;;;;;3.33;2.05;;;;;;;;;;5055260;28;20033;-51
2021/10/24 05:49:22;;;;;;;4.35;2.70;;;;;;;;;;5055700;28;20124;-51
2021/10/24 05:51:48;;;;;;;3.67;2.05;;;;;;;;;;5055749;28;20029;-51
2021/10/24 05:54:14;;;;;;;6.65;2.60;;;;;;;;;;5055125;28;20021;-51
2021/10/24 05:56:40;;;;;;;4.75;2.47;;;;;;;;;;5054055;28;20065;-51
2021/10/24 05:59:06;;;;;;;6.25;2.20;;;;;;;;;;5054982;28;20028;-51
2021/10/24 06:01:32;;;;;;;4.30;2.35;;;;;;;;;;5055271;28;20033;-51
2021/10/24 06:03:58;;;;;;;4.93;2.97;;;;;;;;;;5054907;28;20074;-51
2021/10/24 06:06:24;;;;;;;5.40;1.85;;;;;;;;;;5054998;28;20037;-51
2021/10/24 06:08:50;;;;;;;3.63;2.10;;;;;;;;;;5055479;28;20024;-51
2021/10/24 06:13:46;;;;;;;3.55;2.45;;;;;;;;;;5052916;28;20108;-50
2021/10/24 06:16:13;;;;;;;4.53;1.88;;;;;;;;;;5054753;28;20032;-51
2021/10/24 06:18:39;;;;;;;3.20;2.15;;;;;;;;;;5055063;28;20267;-50
2021/10/24 06:21:06;;;;;;;3.70;2.10;;;;;;;;;;5055035;28;20418;-51
2021/10/24 06:23:32;;;;;;;4.03;2.08;;;;;;;;;;5054562;28;20017;-52
2021/10/24 06:25:58;;;;;;;8.98;2.17;;;;;;;;;;5054970;28;20021;-51
2021/10/24 06:28:25;;;;;;;5.43;2.17;;;;;;;;;;5054952;28;20025;-51
2021/10/24 06:30:51;;;;;;;12.02;2.78;;;;;;;;;;5054307;28;20123;-51
2021/10/24 06:33:17;;;;;;;4.55;2.55;;;;;;;;;;5054913;28;20025;-51
2021/10/24 06:35:45;;;;;;;3.80;2.17;;;;;;;;;;5053883;28;20067;-51
2021/10/24 06:38:11;;;;;;;4.25;2.35;;;;;;;;;;5055227;28;20049;-51
2021/10/24 06:40:37;;;;;;;10.05;2.75;;;;;;;;;;5054920;28;20021;-51
2021/10/24 06:43:03;;;;;;;4.63;2.13;;;;;;;;;;5054753;28;20025;-51
2021/10/24 06:45:31;;;;;;;3.78;2.20;;;;;;;;;;5053439;28;20032;-51
2021/10/24 06:47:57;;;;;;;6.40;2.53;;;;;;;;;;5054552;28;20040;-51
2021/10/24 06:50:23;;;;;;;9.35;2.60;;;;;;;;;;5054484;28;20359;-51
2021/10/24 06:52:49;;;;;;;4.20;2.42;;;;;;;;;;5054421;28;20025;-51
2021/10/24 06:55:16;;;;;;;10.45;2.83;;;;;;;;;;5053632;28;20047;-51
2021/10/24 06:57:46;;;;;;;5.57;2.65;;;;;;;;;;5054637;28;20024;-51
2021/10/24 07:00:13;;;;;;;4.25;2.13;;;;;;;;;;5054103;28;20039;-51
2021/10/24 07:02:39;;;;;;;7.30;2.28;;;;;;;;;;5054395;28;20021;-51
2021/10/24 07:05:05;;;;;;;3.20;2.13;;;;;;;;;;5053449;28;20112;-51
2021/10/24 07:07:31;;;;;;;2.60;1.90;;;;;;;;;;5054133;28;20039;-51
2021/10/24 07:09:57;;;;;;;4.18;3.00;;;;;;;;;;5053930;28;20112;-51
2021/10/24 07:12:23;;;;;;;5.80;2.28;;;;;;;;;;5053822;28;20028;-51
2021/10/24 07:14:49;;;;;;;3.65;2.33;;;;;;;;;;5041319;28;20333;-52
2021/10/24 07:17:15;;;;;;;7.25;2.65;;;;;;;;;;5051962;28;20075;-51
2021/10/24 07:19:41;;;;;;;3.50;2.00;;;;;;;;;;5053551;28;20317;-52
2021/10/24 07:22:07;;;;;;;5.70;3.35;;;;;;;;;;5054177;28;20070;-52
2021/10/24 07:24:33;;;;;;;3.00;2.05;;;;;;;;;;5053180;28;20379;-51
2021/10/24 07:26:59;;;;;;;5.57;2.42;;;;;;;;;;5053718;28;20033;-51
2021/10/24 07:29:25;;;;;;;4.65;2.10;;;;;;;;;;5053617;28;20104;-52
2021/10/24 07:31:51;;;;;;;5.57;2.85;;;;;;;;;;5053296;28;20033;-51
2021/10/24 07:34:17;;;;;;;5.15;2.70;;;;;;;;;;5053163;28;20021;-51
2021/10/24 07:36:43;;;;;;;6.85;3.47;;;;;;;;;;5053713;28;20104;-51
2021/10/24 07:39:09;;;;;;;5.03;3.10;;;;;;;;;;5053351;28;20025;-51
2021/10/24 07:41:35;;;;;;;6.47;2.80;;;;;;;;;;5053371;28;20064;-52
2021/10/24 07:44:01;;;;;;;9.73;2.67;;;;;;;;;;5052471;28;20059;-51
2021/10/24 07:46:27;;;;;;;6.40;3.08;;;;;;;;;;5052739;28;20029;-52
2021/10/24 07:48:53;;;;;;;5.43;2.92;;;;;;;;;;5053094;28;20025;-51
2021/10/24 07:51:19;;;;;;;11.13;3.92;;;;;;;;;;5053622;28;20037;-52
2021/10/24 07:53:45;;;;;;;13.80;4.00;;;;;;;;;;5051831;28;20033;-51
2021/10/24 07:56:11;;;;;;;8.70;3.17;;;;;;;;;;5052550;28;20047;-51
2021/10/24 07:58:37;;;;;;;6.90;3.10;;;;;;;;;;5053551;28;20032;-52
2021/10/24 08:01:04;;;;;;;6.18;3.30;;;;;;;;;;5052710;28;20505;-51
2021/10/24 08:03:30;;;;;;;10.35;2.92;;;;;;;;;;5052408;28;20469;-51
2021/10/24 08:05:57;;;;;;;7.43;3.05;;;;;;;;;;5053098;28;20033;-51
2021/10/24 08:08:23;;;;;;;28.48;4.30;;;;;;;;;;5053266;28;20029;-52
2021/10/24 08:10:49;;;;;;;9.48;4.07;;;;;;;;;;5052543;28;20025;-51
2021/10/24 08:13:15;;;;;;;5.78;2.95;;;;;;;;;;5052920;28;20457;-51
2021/10/24 08:15:41;;;;;;;4.30;2.42;;;;;;;;;;5051920;28;20017;-51
2021/10/24 08:18:08;;;;;;;4.78;3.17;;;;;;;;;;5053003;28;20053;-51
2021/10/24 08:20:35;;;;;;;10.43;2.85;;;;;;;;;;5053063;28;20036;-51
2021/10/24 08:23:01;;;;;;;9.65;3.13;;;;;;;;;;5052897;28;20071;-52
2021/10/24 08:25:28;;;;;;;6.68;3.20;;;;;;;;;;5051295;28;20021;-51
2021/10/24 08:27:54;;;;;;;3.97;2.33;;;;;;;;;;5053013;28;20060;-52
2021/10/24 08:30:21;;;;;;;8.80;3.15;;;;;;;;;;5052395;28;20120;-51
2021/10/24 08:32:47;;;;;;;7.68;3.65;;;;;;;;;;5052680;28;20090;-51
2021/10/24 08:35:13;;;;;;;8.38;4.22;;;;;;;;;;5051911;28;20438;-51
2021/10/24 08:37:39;;;;;;;14.15;4.88;;;;;;;;;;5052987;28;20025;-51
2021/10/24 08:40:07;;;;;;;11.57;3.10;;;;;;;;;;5052194;28;20114;-51
2021/10/24 08:42:37;;;;;;;7.97;3.60;;;;;;;;;;5053001;28;20029;-51
2021/10/24 08:45:03;;;;;;;10.65;4.57;;;;;;;;;;5052091;28;20091;-51
2021/10/24 08:47:30;;;;;;;8.95;4.30;;;;;;;;;;5052633;28;20129;-51
2021/10/24 08:49:56;;;;;;;5.95;3.42;;;;;;;;;;5052913;28;20021;-51
2021/10/24 08:52:23;;;;;;;11.88;4.60;;;;;;;;;;5051993;28;20017;-51
2021/10/24 08:54:50;;;;;;;9.48;2.92;;;;;;;;;;5052280;28;20025;-51
2021/10/24 08:57:26;;;;;;;4.97;3.30;;;;;;;;;;5052537;28;20454;-51
2021/10/24 08:59:53;;;;;;;8.85;3.40;;;;;;;;;;5052859;28;20025;-52
2021/10/24 09:02:19;;;;;;;8.13;3.45;;;;;;;;;;5052432;28;20207;-51
2021/10/24 09:04:55;;;;;;;8.80;4.25;;;;;;;;;;5051835;28;20029;-52
2021/10/24 09:07:21;;;;;;;11.68;3.45;;;;;;;;;;5054470;28;20063;-51
2021/10/24 09:09:48;;;;;;;7.03;3.50;;;;;;;;;;5056501;28;20025;-51
2021/10/24 09:12:15;;;;;;;8.95;4.00;;;;;;;;;;5056202;28;20029;-51
2021/10/24 09:14:54;;;;;;;13.73;4.72;;;;;;;;;;5053086;28;20025;-51
2021/10/24 09:17:24;;;;;;;11.85;3.83;;;;;;;;;;5055660;28;20021;-51
2021/10/24 09:19:52;;;;;;;8.30;4.15;;;;;;;;;;5056550;28;20100;-51
2021/10/24 09:22:18;;;;;;;18.27;4.30;;;;;;;;;;5055678;28;20455;-51
2021/10/24 09:25:02;;;;;;;6.55;2.97;;;;;;;;;;5054905;28;20025;-52
2021/10/24 09:27:29;;;;;;;7.70;3.65;;;;;;;;;;5055866;28;20084;-51
2021/10/24 09:29:55;;;;;;;9.20;3.58;;;;;;;;;;5048061;28;20052;-51
2021/10/24 09:32:25;;;;;;;9.45;3.90;;;;;;;;;;5035713;28;20076;-51
2021/10/24 09:35:01;;;;;;;6.70;3.55;;;;;;;;;;5035485;28;20026;-51
2021/10/24 09:37:27;;;;;;;7.43;3.70;;;;;;;;;;5035903;28;20548;-51
2021/10/24 09:39:54;;;;;;;7.20;4.05;;;;;;;;;;5036030;28;20030;-51
2021/10/24 09:42:22;;;;;;;9.75;4.32;;;;;;;;;;5036015;28;20025;-51
2021/10/24 09:45:08;;;;;;;5.68;3.70;;;;;;;;;;5035321;28;20457;-52
2021/10/24 09:47:35;;;;;;;5.47;3.47;;;;;;;;;;5035178;28;20370;-51
2021/10/24 09:50:02;;;;;;;9.30;4.28;;;;;;;;;;5035709;28;20022;-51
2021/10/24 09:52:30;;;;;;;7.35;4.18;;;;;;;;;;5035655;28;20029;-51
2021/10/24 09:54:56;;;;;;;6.03;3.00;;;;;;;;;;5035189;28;20337;-51
2021/10/24 09:57:23;;;;;;;6.88;3.53;;;;;;;;;;5035539;28;20034;-51
2021/10/24 09:59:49;;;;;;;8.80;2.75;;;;;;;;;;5035357;28;20025;-51
2021/10/24 10:02:17;;;;;;;9.95;4.43;;;;;;;;;;5035075;28;20060;-52
2021/10/24 10:04:44;;;;;;;7.38;4.10;;;;;;;;;;5034645;28;20447;-51
2021/10/24 10:07:11;;;;;;;5.07;2.60;;;;;;;;;;5035185;28;20037;-51
2021/10/24 10:09:37;;;;;;;8.82;3.85;;;;;;;;;;5035371;28;20026;-51
2021/10/24 10:12:04;;;;;;;8.90;3.22;;;;;;;;;;5035043;28;20320;-51
2021/10/24 10:14:34;;;;;;;9.55;3.50;;;;;;;;;;5034316;28;20447;-51
2021/10/24 10:17:00;;;;;;;;;;;;;;;;;;5035753;28;20025;-51
2021/10/24 10:19:33;;;;;;;5.88;2.50;;;;;;;;;;5034733;28;20393;-51
2021/10/24 10:22:19;;;;;;;4.65;3.35;;;;;;;;;;5034765;28;20412;-51
2021/10/24 10:24:45;;;;;;;10.48;4.57;;;;;;;;;;5030156;28;20415;-51
2021/10/24 10:27:35;;;;;;;7.75;3.60;;;;;;;;;;5034454;28;20455;-51
2021/10/24 10:30:13;;;;;;;5.82;3.15;;;;;;;;;;5031853;28;20051;-51
2021/10/24 10:32:44;;;;;;;4.75;3.47;;;;;;;;;;5034805;28;20506;-51
2021/10/24 10:35:16;;;;;;;8.23;3.95;;;;;;;;;;5034019;28;20040;-51
2021/10/24 10:37:45;;;;;;;5.53;3.22;;;;;;;;;;5035011;28;20459;-51
2021/10/24 10:40:16;;;;;;;6.75;4.22;;;;;;;;;;5034679;28;20032;-51
2021/10/24 10:42:43;;;;;;;5.05;3.90;;;;;;;;;;5034802;28;20120;-51
2021/10/24 10:45:19;;;;;;;8.65;4.05;;;;;;;;;;5034218;28;20026;-51
2021/10/24 10:47:50;;;;;;;7.72;3.67;;;;;;;;;;5034691;28;20061;-51
2021/10/24 10:50:31;;;;;;;5.25;3.25;;;;;;;;;;5034384;28;20060;-51
2021/10/24 10:53:01;;;;;;;9.50;2.90;;;;;;;;;;5034624;28;20041;-52
2021/10/24 10:55:29;;;;;;;12.80;5.00;;;;;;;;;;5033561;28;20359;-51
2021/10/24 10:57:55;;;;;;;8.68;4.55;;;;;;;;;;5034561;28;20026;-51
2021/10/24 11:00:37;;;;;;;7.95;3.65;;;;;;;;;;5033856;28;20029;-51
2021/10/24 11:03:04;;;;;;;9.27;4.32;;;;;;;;;;5034164;28;20104;-51
2021/10/24 11:05:47;;;;;;;13.48;5.57;;;;;;;;;;5033551;28;20033;-51
2021/10/24 11:08:32;;;;;;;7.03;3.42;;;;;;;;;;5034338;28;20041;-51
2021/10/24 11:10:58;;;;;;;9.98;5.13;;;;;;;;;;5033476;28;20025;-52
2021/10/24 11:13:31;;;;;;;9.13;3.67;;;;;;;;;;5034269;28;20027;-51
2021/10/24 11:15:58;;;;;;;10.88;4.90;;;;;;;;;;5033847;28;20033;-51
2021/10/24 11:18:34;;;;;;;8.65;3.65;;;;;;;;;;5034155;28;20096;-51
2021/10/24 11:21:00;;;;;;;15.25;5.82;;;;;;;;;;5034139;28;20056;-51
2021/10/24 11:23:30;;;;;;;6.32;2.92;;;;;;;;;;5033237;28;20018;-51
2021/10/24 11:25:57;;;;;;;9.48;3.67;;;;;;;;;;5034026;28;20079;-51
2021/10/24 11:28:25;;;;;;;5.25;3.25;;;;;;;;;;5033653;28;20042;-51
2021/10/24 11:31:02;;;;;;;4.53;3.30;;;;;;;;;;5032921;28;20128;-52
2021/10/24 11:33:43;;;;;;;7.03;3.83;;;;;;;;;;5033299;28;20514;-51
2021/10/24 11:36:09;;;;;;;8.02;4.07;;;;;;;;;;5033718;28;20037;-51
2021/10/24 11:38:35;;;;;;;10.15;4.15;;;;;;;;;;5033264;28;20430;-51
2021/10/24 11:41:01;;;;;;;8.90;4.18;;;;;;;;;;5033795;28;20060;-52
2021/10/24 11:43:29;;;;;;;11.50;4.15;;;;;;;;;;5033278;28;20025;-51
2021/10/24 11:45:57;;;;;;;6.45;3.72;;;;;;;;;;5033171;28;20053;-52
2021/10/24 11:48:25;;;;;;;7.15;4.07;;;;;;;;;;5032868;28;20492;-52
2021/10/24 11:50:51;;;;;;;12.70;6.43;;;;;;;;;;5033181;28;20032;-51
2021/10/24 11:53:25;;;;;;;11.50;5.03;;;;;;;;;;5032956;28;20033;-51
2021/10/24 11:55:51;;;;;;;9.80;5.30;;;;;;;;;;5033240;28;20029;-52
2021/10/24 12:01:06;;;;;;;10.75;5.25;;;;;;;;;;5033139;28;20412;-51
2021/10/24 12:03:34;;;;;;;9.52;5.32;;;;;;;;;;5032643;28;20022;-51
2021/10/24 12:06:00;;;;;;;7.95;4.20;;;;;;;;;;5033220;28;20033;-52
2021/10/24 12:08:40;;;;;;;8.23;4.00;;;;;;;;;;5033107;28;20410;-51
2021/10/24 12:11:07;;;;;;;13.38;4.45;;;;;;;;;;5033799;28;20040;-52
2021/10/24 12:13:34;;;;;;;13.52;5.30;;;;;;;;;;5030516;28;20108;-51
2021/10/24 12:16:00;;;;;;;8.13;3.70;;;;;;;;;;5033263;28;20033;-51
2021/10/24 12:18:28;;;;;;;7.70;3.17;;;;;;;;;;5032832;28;20028;-52
2021/10/24 12:20:55;;;;;;;13.00;3.55;;;;;;;;;;5032664;28;20025;-51
2021/10/24 12:23:21;;;;;;;6.65;3.83;;;;;;;;;;5031302;28;20026;-52
2021/10/24 12:25:52;;;;;;;8.30;3.85;;;;;;;;;;5032186;28;20447;-52
2021/10/24 12:28:21;;;;;;;;;;;;;;;;;;5033172;28;20535;-51
2021/10/24 12:30:53;;;;;;;14.43;4.95;;;;;;;;;;5032787;28;19920;-51
2021/10/24 12:33:27;;;;;;;6.32;3.30;;;;;;;;;;5032384;28;20499;-51
2021/10/24 12:35:54;;;;;;;8.52;3.88;;;;;;;;;;5032618;28;20029;-51
2021/10/24 12:38:21;;;;;;;6.57;4.05;;;;;;;;;;5032997;28;20034;-52
2021/10/24 12:40:54;;;;;;;7.60;3.67;;;;;;;;;;5033998;28;20156;-52
2021/10/24 12:43:20;;;;;;;11.82;4.78;;;;;;;;;;5037105;28;20034;-52
2021/10/24 12:45:52;;;;;;;7.05;3.30;;;;;;;;;;5035278;28;20359;-51
2021/10/24 12:48:19;;;;;;;8.25;3.30;;;;;;;;;;5037249;28;20037;-51
2021/10/24 12:50:45;;;;;;;6.28;3.53;;;;;;;;;;5036654;28;20018;-52
2021/10/24 12:53:14;;;;;;;9.82;4.50;;;;;;;;;;5036390;28;20030;-51
2021/10/24 12:55:57;;;;;;;7.47;3.83;;;;;;;;;;5040441;28;20436;-52
2021/10/24 12:58:23;;;;;;;9.02;4.38;;;;;;;;;;5051449;28;20116;-51
2021/10/24 13:00:49;;;;;;;6.15;4.15;;;;;;;;;;5045196;28;20035;-51
2021/10/24 13:03:15;;;;;;;6.70;3.72;;;;;;;;;;5056442;28;20111;-52
2021/10/24 13:05:41;;;;;;;9.23;4.78;;;;;;;;;;5039700;28;20040;-51
2021/10/24 13:08:07;;;;;;;7.40;2.85;;;;;;;;;;5051843;28;20094;-51
2021/10/24 13:10:33;;;;;;;9.13;3.65;;;;;;;;;;5044219;28;20112;-52
2021/10/24 13:12:59;;;;;;;6.75;3.90;;;;;;;;;;5048514;28;20018;-51
2021/10/24 13:15:25;;;;;;;10.30;4.03;;;;;;;;;;5036026;28;20059;-51
2021/10/24 13:17:51;;;;;;;8.45;3.40;;;;;;;;;;5047156;28;20025;-52
2021/10/24 13:20:19;;;;;;;8.15;3.53;;;;;;;;;;5056013;28;20328;-52
2021/10/24 13:22:55;;;;;;;7.78;4.20;;;;;;;;;;5055997;28;20037;-51
2021/10/24 13:25:25;;;;;;;6.57;3.85;;;;;;;;;;5055718;28;20025;-52
2021/10/24 13:27:52;;;;;;;;;;;;;;;;;;5056616;28;20029;-51
2021/10/24 13:30:18;;;;;;;6.43;4.15;;;;;;;;;;5043778;28;19939;-51
2021/10/24 13:32:44;;;;;;;8.40;3.92;;;;;;;;;;5049880;28;20021;-51
2021/10/24 13:35:10;;;;;;;7.85;3.38;;;;;;;;;;5054576;28;20028;-51
2021/10/24 13:37:35;;;;;;;7.78;4.53;;;;;;;;;;5036348;28;20272;-51
2021/10/24 13:40:02;;;;;;;7.35;4.35;;;;;;;;;;5035655;28;20052;-51
2021/10/24 13:42:28;;;;;;;10.48;4.05;;;;;;;;;;5036199;28;20036;-52
2021/10/24 13:44:54;;;;;;;6.07;3.55;;;;;;;;;;5034668;28;20021;-52
2021/10/24 13:47:20;;;;;;;7.03;2.85;;;;;;;;;;5035698;28;20121;-51
2021/10/24 13:49:46;;;;;;;5.85;3.72;;;;;;;;;;5055376;28;20025;-52
2021/10/24 13:52:12;;;;;;;9.25;3.35;;;;;;;;;;5054709;28;20028;-52
2021/10/24 13:54:38;;;;;;;10.15;4.72;;;;;;;;;;5054772;28;20510;-51
2021/10/24 13:57:04;;;;;;;6.43;3.28;;;;;;;;;;5054499;28;20066;-52
2021/10/24 13:59:31;;;;;;;5.55;2.97;;;;;;;;;;5043800;28;20095;-51
2021/10/24 14:01:57;;;;;;;5.05;3.17;;;;;;;;;;5062082;28;20028;-52
2021/10/24 14:04:23;;;;;;;6.50;3.25;;;;;;;;;;5054393;28;20086;-52
2021/10/24 14:06:49;;;;;;;7.68;3.30;;;;;;;;;;5054900;28;20036;-52
2021/10/24 14:09:15;;;;;;;4.78;2.28;;;;;;;;;;5053922;28;20029;-52
2021/10/24 14:11:41;;;;;;;5.05;3.10;;;;;;;;;;5049140;28;20025;-52
2021/10/24 14:14:07;;;;;;;6.43;3.25;;;;;;;;;;5034938;28;20451;-52
2021/10/24 14:16:33;;;;;;;7.65;3.33;;;;;;;;;;5035026;28;20033;-51
2021/10/24 14:18:59;;;;;;;8.45;4.90;;;;;;;;;;5036269;28;20060;-52
2021/10/24 14:21:25;;;;;;;8.10;4.20;;;;;;;;;;5035354;28;20018;-52
2021/10/24 14:23:51;;;;;;;6.43;3.28;;;;;;;;;;5034427;28;20336;-51
2021/10/24 14:26:18;;;;;;;4.60;3.28;;;;;;;;;;5035019;28;20053;-52
2021/10/24 14:28:45;;;;;;;6.68;3.55;;;;;;;;;;5043128;28;20025;-51
2021/10/24 14:31:11;;;;;;;8.55;3.78;;;;;;;;;;5036621;28;20064;-51
2021/10/24 14:33:38;;;;;;;5.97;3.53;;;;;;;;;;5034612;28;20018;-52
2021/10/24 14:36:04;;;;;;;6.30;3.50;;;;;;;;;;5034716;28;20032;-52
2021/10/24 14:38:30;;;;;;;5.65;3.10;;;;;;;;;;5034553;28;20451;-51
2021/10/24 14:40:57;;;;;;;7.15;2.70;;;;;;;;;;5035733;28;20076;-51
2021/10/24 14:43:23;;;;;;;6.00;3.15;;;;;;;;;;5041224;28;20108;-51
2021/10/24 14:45:49;;;;;;;6.80;3.30;;;;;;;;;;5037285;28;20125;-51
2021/10/24 14:48:15;;;;;;;5.40;3.00;;;;;;;;;;5034611;28;20398;-51